Time;durP1;ratioP1;P1;durP2;ratioP2;P2;SDS_P1;SDS_P2;PMS_P1;PMS_P2;Temp;Humidity;BMP_temperature;BMP_pressure;BME280_temperature;BME280_humidity;BME280_pressure;Samples;Min_cycle;Max_cycle;Signal;HPM_P1;HPM_P2
2023/04/23 00:01:16;;;;;;;20.77;18.73;;;15.50;94.20;;;;;;5013354;28;20014;-65
2023/04/23 00:03:43;;;;;;;20.60;18.60;;;15.50;94.10;;;;;;5013327;28;20037;-65
2023/04/23 00:06:09;;;;;;;20.52;18.42;;;15.50;94.20;;;;;;5012866;28;20037;-64
2023/04/23 00:08:38;;;;;;;20.02;18.10;;;15.50;94.10;;;;;;5013172;28;20029;-67
2023/04/23 00:11:05;;;;;;;20.50;18.58;;;15.60;94.10;;;;;;5012825;28;20018;-64
2023/04/23 00:13:31;;;;;;;21.35;19.27;;;15.50;94.10;;;;;;5013065;28;20390;-64
2023/04/23 00:15:56;;;;;;;20.70;18.60;;;15.50;94.10;;;;;;5013299;28;20498;-65
2023/04/23 00:18:22;;;;;;;20.90;18.90;;;15.50;94.00;;;;;;5001289;28;20380;-66
2023/04/23 00:20:48;;;;;;;20.67;18.65;;;15.40;94.10;;;;;;4993535;28;20022;-65
2023/04/23 00:23:13;;;;;;;19.95;18.02;;;15.40;94.00;;;;;;4993340;28;20041;-69
2023/04/23 00:25:39;;;;;;;20.55;18.52;;;15.40;94.00;;;;;;4993298;28;20023;-66
2023/04/23 00:28:05;;;;;;;20.02;18.05;;;15.40;94.00;;;;;;4993302;28;20375;-68
2023/04/23 00:30:31;;;;;;;19.77;17.80;;;15.40;93.90;;;;;;4993330;28;20143;-65
2023/04/23 00:32:56;;;;;;;20.67;18.25;;;15.40;93.90;;;;;;4999258;28;20185;-66
2023/04/23 00:35:22;;;;;;;18.88;17.08;;;15.40;94.10;;;;;;5012249;28;20117;-65
2023/04/23 00:37:48;;;;;;;19.23;17.30;;;15.40;93.90;;;;;;5012199;28;20026;-64
2023/04/23 00:40:13;;;;;;;18.50;16.80;;;15.40;93.90;;;;;;5012392;28;20114;-65
2023/04/23 00:42:39;;;;;;;19.52;17.70;;;15.40;94.00;;;;;;5012893;28;20038;-65
2023/04/23 00:45:07;;;;;;;20.02;17.95;;;15.30;93.90;;;;;;5012125;28;20398;-69
2023/04/23 00:47:33;;;;;;;18.77;16.75;;;15.30;93.90;;;;;;5012010;28;20434;-68
2023/04/23 00:50:00;;;;;;;19.90;18.00;;;15.30;94.00;;;;;;5012826;28;20010;-65
2023/04/23 00:52:25;;;;;;;20.25;17.15;;;15.30;94.00;;;;;;5012406;28;20093;-64
2023/04/23 00:54:51;;;;;;;17.77;16.08;;;15.30;94.00;;;;;;5012561;28;20450;-65
2023/04/23 00:57:17;;;;;;;16.77;15.18;;;15.20;94.00;;;;;;5012671;28;20022;-65
2023/04/23 00:59:43;;;;;;;17.70;15.82;;;15.30;94.00;;;;;;5012396;28;20022;-66
2023/04/23 01:02:09;;;;;;;17.08;15.27;;;15.30;94.00;;;;;;5012917;28;20033;-64
2023/04/23 01:04:36;;;;;;;17.25;15.65;;;15.30;94.00;;;;;;5012319;28;20042;-64
2023/04/23 01:07:02;;;;;;;17.63;15.93;;;15.30;94.00;;;;;;5012538;28;20169;-64
2023/04/23 01:09:28;;;;;;;16.02;14.45;;;15.30;94.00;;;;;;5012175;28;20057;-65
2023/04/23 01:11:56;;;;;;;16.88;15.27;;;15.30;94.00;;;;;;5012493;28;20537;-67
2023/04/23 01:14:22;;;;;;;17.25;15.65;;;15.30;94.00;;;;;;5002534;28;20100;-69
2023/04/23 01:16:48;;;;;;;16.85;15.25;;;15.30;94.10;;;;;;4993007;28;20479;-66
2023/04/23 01:19:14;;;;;;;17.50;15.63;;;15.30;94.00;;;;;;4996361;28;20428;-65
2023/04/23 01:21:41;;;;;;;17.48;15.68;;;15.30;94.40;;;;;;4996518;28;20026;-66
2023/04/23 01:24:08;;;;;;;17.40;15.70;;;15.20;94.10;;;;;;4996322;28;20030;-65
2023/04/23 01:26:34;;;;;;;17.77;15.98;;;15.20;94.10;;;;;;5002399;28;20022;-64
2023/04/23 01:29:00;;;;;;;17.95;16.15;;;15.20;94.20;;;;;;5010472;28;20040;-64
2023/04/23 01:31:27;;;;;;;17.70;16.00;;;15.20;94.10;;;;;;5015688;28;20053;-68
2023/04/23 01:33:54;;;;;;;18.63;16.73;;;15.10;94.20;;;;;;5013230;28;20025;-65
2023/04/23 01:36:23;;;;;;;17.63;15.82;;;15.10;94.30;;;;;;5015407;28;20038;-65
2023/04/23 01:38:48;;;;;;;17.10;15.40;;;15.10;94.40;;;;;;5015528;28;20056;-64
2023/04/23 01:41:14;;;;;;;15.98;14.43;;;15.10;94.30;;;;;;5015906;28;20022;-65
2023/04/23 01:43:43;;;;;;;18.23;16.42;;;15.10;94.40;;;;;;5012716;28;20068;-64
2023/04/23 01:46:09;;;;;;;17.50;15.80;;;15.10;94.40;;;;;;4996230;28;20061;-66
2023/04/23 01:48:36;;;;;;;18.27;15.60;;;15.10;94.40;;;;;;4995903;28;20057;-65
2023/04/23 01:51:01;;;;;;;17.15;15.35;;;15.10;94.40;;;;;;4995946;28;20058;-65
2023/04/23 01:53:27;;;;;;;16.83;15.23;;;15.10;94.50;;;;;;4995872;28;20030;-66
2023/04/23 01:55:54;;;;;;;17.02;15.38;;;15.10;94.50;;;;;;4995965;28;20029;-65
2023/04/23 01:58:22;;;;;;;17.17;15.45;;;15.10;94.60;;;;;;4995951;28;20384;-65
2023/04/23 02:00:48;;;;;;;17.92;16.17;;;15.10;94.70;;;;;;4995821;28;20050;-65
2023/04/23 02:03:13;;;;;;;17.15;15.45;;;15.00;94.70;;;;;;4995597;28;20089;-65
2023/04/23 02:05:40;;;;;;;17.63;15.80;;;15.10;94.80;;;;;;4995037;28;20034;-67
2023/04/23 02:08:06;;;;;;;17.08;15.48;;;15.10;94.80;;;;;;4995528;28;20490;-65
2023/04/23 02:10:32;;;;;;;16.95;15.25;;;15.10;94.80;;;;;;4995534;28;20022;-65
2023/04/23 02:12:58;;;;;;;18.02;16.23;;;15.10;94.80;;;;;;4996782;28;20026;-66
2023/04/23 02:15:24;;;;;;;18.38;16.58;;;15.00;94.90;;;;;;4995523;28;20034;-65
2023/04/23 02:17:51;;;;;;;16.17;14.68;;;15.00;94.90;;;;;;4995603;28;20072;-65
2023/04/23 02:20:16;;;;;;;17.13;15.00;;;15.00;94.90;;;;;;4995286;28;20022;-69
2023/04/23 02:22:42;;;;;;;17.35;15.65;;;15.10;94.90;;;;;;4994691;28;20053;-65
2023/04/23 02:25:08;;;;;;;17.60;15.90;;;15.00;94.80;;;;;;4995155;28;20145;-65
2023/04/23 02:27:34;;;;;;;16.67;15.07;;;15.10;94.80;;;;;;4995243;28;20295;-65
2023/04/23 02:30:00;;;;;;;16.92;15.32;;;15.00;94.90;;;;;;4995262;28;20022;-66
2023/04/23 02:32:26;;;;;;;17.35;15.68;;;15.00;94.90;;;;;;4995206;28;20038;-65
2023/04/23 02:34:52;;;;;;;17.63;15.85;;;15.00;94.90;;;;;;4995031;28;20073;-65
2023/04/23 02:37:18;;;;;;;17.63;15.80;;;14.90;94.90;;;;;;4995044;28;20062;-66
2023/04/23 02:39:44;;;;;;;17.92;16.13;;;14.90;94.90;;;;;;4994884;28;20518;-65
2023/04/23 02:42:10;;;;;;;17.58;15.77;;;14.90;95.00;;;;;;4998271;28;20022;-68
2023/04/23 02:44:36;;;;;;;17.88;15.98;;;14.90;95.00;;;;;;5014387;28;20042;-67
2023/04/23 02:47:01;;;;;;;17.95;16.23;;;14.90;95.00;;;;;;5014160;28;20037;-67
2023/04/23 02:49:27;;;;;;;16.77;15.07;;;14.80;95.00;;;;;;5014654;28;20033;-65
2023/04/23 02:51:53;;;;;;;16.77;14.98;;;14.90;95.00;;;;;;5014105;28;20022;-66
2023/04/23 02:54:18;;;;;;;16.58;14.98;;;14.90;95.10;;;;;;5014599;28;20033;-65
2023/04/23 02:56:44;;;;;;;17.77;15.30;;;14.80;95.00;;;;;;5014441;28;20033;-66
2023/04/23 02:59:10;;;;;;;17.25;15.48;;;14.80;95.10;;;;;;5014233;28;20499;-66
2023/04/23 03:01:35;;;;;;;18.05;15.90;;;14.80;95.20;;;;;;5014219;28;20030;-66
2023/04/23 03:04:02;;;;;;;17.17;15.57;;;14.80;95.10;;;;;;5014079;28;20084;-66
2023/04/23 03:06:28;;;;;;;18.73;16.80;;;14.70;95.20;;;;;;5014134;28;20114;-67
2023/04/23 03:08:54;;;;;;;17.38;15.73;;;14.70;95.20;;;;;;5014111;28;20026;-66
2023/04/23 03:11:21;;;;;;;16.45;14.93;;;14.70;95.20;;;;;;5013685;28;20037;-66
2023/04/23 03:13:47;;;;;;;17.33;15.50;;;14.70;95.20;;;;;;4995587;28;20018;-66
2023/04/23 03:16:13;;;;;;;17.58;15.77;;;14.70;95.20;;;;;;5008968;28;20536;-66
2023/04/23 03:18:38;;;;;;;16.80;15.00;;;14.70;95.50;;;;;;5014153;28;20655;-67
2023/04/23 03:21:04;;;;;;;17.10;15.40;;;14.70;95.30;;;;;;5013516;28;20383;-66
2023/04/23 03:23:29;;;;;;;16.83;14.77;;;14.70;95.30;;;;;;5014012;28;20463;-65
2023/04/23 03:25:55;;;;;;;15.55;14.05;;;14.70;95.40;;;;;;5014313;28;20144;-65
2023/04/23 03:28:21;;;;;;;16.50;14.68;;;14.60;95.40;;;;;;5014055;28;20378;-66
2023/04/23 03:30:46;;;;;;;15.77;14.02;;;14.60;95.40;;;;;;5013802;28;20029;-67
2023/04/23 03:33:12;;;;;;;14.63;13.07;;;14.60;95.40;;;;;;5013672;28;20037;-65
2023/04/23 03:35:37;;;;;;;14.27;12.85;;;14.60;95.40;;;;;;5013637;28;20064;-66
2023/04/23 03:38:03;;;;;;;13.20;11.93;;;14.70;95.30;;;;;;5013547;28;20475;-65
2023/04/23 03:40:29;;;;;;;13.60;12.18;;;14.60;95.40;;;;;;5012987;28;20073;-68
2023/04/23 03:42:55;;;;;;;14.40;13.00;;;14.70;95.40;;;;;;5001546;28;20069;-65
2023/04/23 03:45:20;;;;;;;13.52;12.13;;;14.70;95.40;;;;;;4993825;28;20379;-68
2023/04/23 03:47:46;;;;;;;13.73;12.10;;;14.70;95.40;;;;;;4993777;28;20542;-67
2023/04/23 03:50:12;;;;;;;15.18;12.48;;;14.60;95.40;;;;;;4993576;28;20082;-65
2023/04/23 03:52:37;;;;;;;14.07;12.38;;;14.60;95.50;;;;;;4994912;28;20481;-66
2023/04/23 03:55:03;;;;;;;13.73;12.05;;;14.60;95.50;;;;;;4993804;28;20042;-65
2023/04/23 03:57:29;;;;;;;14.13;12.73;;;14.60;95.50;;;;;;4993525;28;20068;-66
2023/04/23 03:59:54;;;;;;;13.85;12.40;;;14.50;95.50;;;;;;4993709;28;20030;-65
2023/04/23 04:02:20;;;;;;;13.60;12.30;;;14.50;95.60;;;;;;4993593;28;20023;-66
2023/04/23 04:04:48;;;;;;;12.90;11.60;;;14.60;95.60;;;;;;4993543;28;20034;-65
2023/04/23 04:07:14;;;;;;;13.80;10.43;;;14.60;95.60;;;;;;4993475;28;20034;-64
2023/04/23 04:09:39;;;;;;;11.35;10.15;;;14.50;95.50;;;;;;4993444;28;20061;-68
2023/04/23 04:12:05;;;;;;;12.90;10.40;;;14.60;95.50;;;;;;4994482;28;20097;-65
2023/04/23 04:14:31;;;;;;;12.43;11.23;;;14.60;95.40;;;;;;4993397;28;20399;-65
2023/04/23 04:16:57;;;;;;;13.70;10.45;;;14.60;95.50;;;;;;4993275;28;20061;-65
2023/04/23 04:19:23;;;;;;;12.90;10.93;;;14.60;95.50;;;;;;4993248;28;20018;-65
2023/04/23 04:21:50;;;;;;;10.57;9.55;;;14.60;95.50;;;;;;4993342;28;20026;-65
2023/04/23 04:24:16;;;;;;;11.07;9.98;;;14.60;95.70;;;;;;4992998;28;20034;-65
2023/04/23 04:26:43;;;;;;;11.25;10.15;;;14.50;95.50;;;;;;4993897;28;20029;-66
2023/04/23 04:29:09;;;;;;;11.80;10.60;;;14.60;95.50;;;;;;4993188;28;20026;-67
2023/04/23 04:31:36;;;;;;;11.82;10.23;;;14.50;95.50;;;;;;4993387;28;20041;-65
2023/04/23 04:34:01;;;;;;;12.00;9.30;;;14.50;95.50;;;;;;4992701;28;20467;-66
2023/04/23 04:36:27;;;;;;;10.52;9.23;;;14.50;95.60;;;;;;4993141;28;20121;-66
2023/04/23 04:38:57;;;;;;;9.88;8.98;;;14.50;95.50;;;;;;4993091;28;20023;-65
2023/04/23 04:41:27;;;;;;;10.43;8.75;;;14.50;95.50;;;;;;4994107;28;20105;-66
2023/04/23 04:43:57;;;;;;;9.35;8.45;;;14.40;95.50;;;;;;5012285;28;20030;-65
2023/04/23 04:46:24;;;;;;;11.52;9.02;;;14.50;95.60;;;;;;5011729;28;20418;-66
2023/04/23 04:48:50;;;;;;;14.73;12.63;;;14.50;95.50;;;;;;5012750;28;20022;-65
2023/04/23 04:51:16;;;;;;;11.35;9.65;;;14.50;95.50;;;;;;5013579;28;20100;-68
2023/04/23 04:53:42;;;;;;;12.43;11.13;;;14.50;95.50;;;;;;5016766;28;20105;-66
2023/04/23 04:56:08;;;;;;;13.30;10.05;;;14.50;95.50;;;;;;5016764;28;20385;-65
2023/04/23 04:58:34;;;;;;;9.35;8.18;;;14.50;95.40;;;;;;5016341;28;20534;-65
2023/04/23 05:01:00;;;;;;;9.02;8.07;;;14.50;95.50;;;;;;5016054;28;20025;-65
2023/04/23 05:03:26;;;;;;;11.00;9.80;;;14.60;95.40;;;;;;5016305;28;20045;-65
2023/04/23 05:05:53;;;;;;;11.95;10.57;;;14.50;95.50;;;;;;5016718;28;20030;-66
2023/04/23 05:08:20;;;;;;;16.35;11.68;;;14.50;95.40;;;;;;5015339;28;20538;-67
2023/04/23 05:10:46;;;;;;;13.95;11.15;;;14.60;95.50;;;;;;5016409;28;20142;-65
2023/04/23 05:13:11;;;;;;;12.23;10.13;;;14.60;95.40;;;;;;5001022;28;20126;-66
2023/04/23 05:15:37;;;;;;;11.73;9.25;;;14.60;95.50;;;;;;4996285;28;20030;-66
2023/04/23 05:18:04;;;;;;;9.98;8.23;;;14.50;95.50;;;;;;4996656;28;20034;-65
2023/04/23 05:20:29;;;;;;;9.93;8.45;;;14.50;95.60;;;;;;4996397;28;20068;-65
2023/04/23 05:22:58;;;;;;;8.48;7.60;;;14.40;95.70;;;;;;4996358;28;20018;-65
2023/04/23 05:25:24;;;;;;;10.98;7.35;;;14.40;95.70;;;;;;4996482;28;20022;-65
2023/04/23 05:27:50;;;;;;;8.23;6.68;;;14.50;95.60;;;;;;4996629;28;20037;-66
2023/04/23 05:30:16;;;;;;;8.73;6.97;;;14.50;95.60;;;;;;4996175;28;20030;-67
2023/04/23 05:32:42;;;;;;;8.48;6.97;;;14.50;95.60;;;;;;4996300;28;20058;-65
2023/04/23 05:35:08;;;;;;;8.07;6.95;;;14.60;95.70;;;;;;4995410;28;20081;-65
2023/04/23 05:37:33;;;;;;;9.65;7.03;;;14.60;95.70;;;;;;4996405;28;20026;-67
2023/04/23 05:39:59;;;;;;;8.10;6.93;;;14.60;95.70;;;;;;4996296;28;20464;-66
2023/04/23 05:42:25;;;;;;;7.55;6.80;;;14.50;95.80;;;;;;5007363;28;20026;-65
2023/04/23 05:44:51;;;;;;;9.30;7.32;;;14.60;95.70;;;;;;5015418;28;20089;-65
2023/04/23 05:47:16;;;;;;;6.78;6.03;;;14.60;95.70;;;;;;5014467;28;20053;-68
2023/04/23 05:49:42;;;;;;;5.53;4.63;;;14.60;96.00;;;;;;5015544;28;20026;-68
2023/04/23 05:52:08;;;;;;;7.45;5.03;;;14.80;95.90;;;;;;5015932;28;20394;-66
2023/04/23 05:54:33;;;;;;;5.50;4.00;;;14.90;95.80;;;;;;5011752;28;20060;-66
2023/04/23 05:57:00;;;;;;;6.55;4.55;;;15.00;95.60;;;;;;5012288;28;20026;-68
2023/04/23 05:59:25;;;;;;;4.70;3.92;;;15.10;95.60;;;;;;5005736;28;20518;-67
2023/04/23 06:01:52;;;;;;;8.52;4.30;;;15.20;95.50;;;;;;5006461;28;20034;-68
2023/04/23 06:04:17;;;;;;;10.13;3.95;;;15.30;95.80;;;;;;5004290;28;20140;-68
2023/04/23 06:06:43;;;;;;;9.23;4.63;;;15.30;95.30;;;;;;5001864;28;20116;-65
2023/04/23 06:09:09;;;;;;;6.38;3.70;;;15.40;95.40;;;;;;5002926;28;20061;-66
2023/04/23 06:11:35;;;;;;;9.40;3.63;;;15.40;95.30;;;;;;5004276;28;20029;-67
2023/04/23 06:14:01;;;;;;;7.80;3.83;;;15.50;95.30;;;;;;5003355;28;20478;-66
2023/04/23 06:16:26;;;;;;;7.10;4.10;;;15.50;95.20;;;;;;5005879;28;20352;-67
2023/04/23 06:18:55;;;;;;;7.00;4.43;;;15.60;95.20;;;;;;5001858;28;20533;-65
2023/04/23 06:21:21;;;;;;;7.82;3.88;;;15.60;95.10;;;;;;5004414;28;20024;-66
2023/04/23 06:23:46;;;;;;;5.28;3.00;;;15.70;95.20;;;;;;5004899;28;20139;-69
2023/04/23 06:26:12;;;;;;;5.32;3.97;;;15.70;95.10;;;;;;5004368;28;20111;-68
2023/04/23 06:28:38;;;;;;;8.27;3.80;;;15.70;95.00;;;;;;5005471;28;20518;-67
2023/04/23 06:31:04;;;;;;;6.05;3.33;;;15.80;95.10;;;;;;5006678;28;20026;-66
2023/04/23 06:33:30;;;;;;;4.90;2.90;;;15.80;95.00;;;;;;4999891;28;20382;-66
2023/04/23 06:35:55;;;;;;;7.18;3.50;;;15.90;94.90;;;;;;5001201;28;20045;-65
2023/04/23 06:38:21;;;;;;;8.95;4.00;;;15.90;94.80;;;;;;5003582;28;20458;-67
2023/04/23 06:40:47;;;;;;;6.18;3.72;;;15.90;94.80;;;;;;5003506;28;21774;-67
2023/04/23 06:43:13;;;;;;;7.85;3.20;;;16.00;94.70;;;;;;5006144;28;20048;-69
2023/04/23 06:45:39;;;;;;;7.38;3.20;;;16.10;94.60;;;;;;5002814;28;20109;-65
2023/04/23 06:48:05;;;;;;;5.80;3.25;;;16.10;94.60;;;;;;5004965;28;20049;-69
2023/04/23 06:50:31;;;;;;;5.55;3.03;;;16.10;94.60;;;;;;5004809;28;20029;-66
2023/04/23 06:52:56;;;;;;;5.55;3.00;;;16.10;94.50;;;;;;5002416;28;20129;-68
2023/04/23 06:55:25;;;;;;;8.15;2.83;;;16.10;94.50;;;;;;5004093;28;20463;-66
2023/04/23 06:57:51;;;;;;;5.68;2.78;;;16.20;94.40;;;;;;5004014;28;20480;-66
2023/04/23 07:00:18;;;;;;;6.35;2.67;;;16.20;94.40;;;;;;5006338;28;20117;-70
2023/04/23 07:02:44;;;;;;;6.38;2.75;;;16.30;94.30;;;;;;5011729;28;20263;-69
2023/04/23 07:05:10;;;;;;;7.03;2.70;;;16.30;94.30;;;;;;5011181;28;20381;-67
2023/04/23 07:07:37;;;;;;;7.65;2.83;;;16.40;94.30;;;;;;5011894;28;20455;-70
2023/04/23 07:10:06;;;;;;;6.90;2.55;;;16.40;94.20;;;;;;5013574;28;20030;-71
2023/04/23 07:12:31;;;;;;;7.07;2.63;;;16.40;94.20;;;;;;5011261;28;20021;-69
2023/04/23 07:14:57;;;;;;;4.28;2.38;;;16.50;94.20;;;;;;5009478;28;20030;-67
2023/04/23 07:17:22;;;;;;;8.23;2.58;;;16.50;94.20;;;;;;5010884;28;20084;-66
2023/04/23 07:19:48;;;;;;;7.65;2.30;;;16.50;94.20;;;;;;5009991;28;20498;-70
2023/04/23 07:22:14;;;;;;;6.40;2.47;;;16.50;94.00;;;;;;5011731;28;20029;-70
2023/04/23 07:24:40;;;;;;;6.50;2.60;;;16.60;94.00;;;;;;5014493;28;20048;-69
2023/04/23 07:27:06;;;;;;;7.22;2.83;;;16.60;94.00;;;;;;5010636;28;20037;-65
2023/04/23 07:29:32;;;;;;;10.90;3.10;;;16.60;94.00;;;;;;5004072;28;20320;-67
2023/04/23 07:31:58;;;;;;;9.00;2.50;;;16.70;94.00;;;;;;5005760;28;20029;-67
2023/04/23 07:34:23;;;;;;;11.02;2.22;;;16.70;93.90;;;;;;5008253;28;20569;-69
2023/04/23 07:36:49;;;;;;;7.60;2.20;;;16.70;93.90;;;;;;4997500;28;20476;-69
2023/04/23 07:39:15;;;;;;;12.27;2.63;;;16.70;93.90;;;;;;5005187;28;20030;-69
2023/04/23 07:41:40;;;;;;;7.97;2.40;;;16.80;93.90;;;;;;4999571;28;20029;-67
2023/04/23 07:44:06;;;;;;;8.82;2.25;;;16.80;93.90;;;;;;5006251;28;20038;-71
2023/04/23 07:46:31;;;;;;;10.48;2.70;;;16.80;93.80;;;;;;4998558;28;20088;-67
2023/04/23 07:48:57;;;;;;;11.32;2.40;;;16.80;93.80;;;;;;5009709;28;20442;-70
2023/04/23 07:51:25;;;;;;;9.32;2.58;;;16.90;93.80;;;;;;5011511;28;20145;-71
2023/04/23 07:53:53;;;;;;;7.35;2.42;;;16.90;93.80;;;;;;5011633;28;20030;-70
2023/04/23 07:56:20;;;;;;;10.65;2.15;;;16.90;93.70;;;;;;5011046;28;20430;-71
2023/04/23 07:58:46;;;;;;;8.35;2.10;;;17.00;93.70;;;;;;5012826;28;20025;-70
2023/04/23 08:01:11;;;;;;;9.25;2.42;;;17.00;93.70;;;;;;5010096;28;20438;-68
2023/04/23 08:03:37;;;;;;;8.38;1.88;;;17.00;94.00;;;;;;5003883;28;20038;-69
2023/04/23 08:06:03;;;;;;;10.27;2.33;;;17.10;94.20;;;;;;5009777;28;20061;-67
2023/04/23 08:08:29;;;;;;;10.40;2.00;;;17.10;94.20;;;;;;5010503;28;20033;-73
2023/04/23 08:10:55;;;;;;;10.10;1.80;;;17.20;94.30;;;;;;5011888;28;20080;-74
2023/04/23 08:13:20;;;;;;;10.25;2.13;;;17.20;94.50;;;;;;5011767;28;20021;-71
2023/04/23 08:15:47;;;;;;;7.97;2.15;;;17.30;94.40;;;;;;5011868;28;20038;-72
2023/04/23 08:18:13;;;;;;;7.65;1.83;;;17.30;94.40;;;;;;5012594;28;20018;-69
2023/04/23 08:20:40;;;;;;;10.57;2.33;;;17.40;94.40;;;;;;5014204;28;20022;-73
2023/04/23 08:23:05;;;;;;;6.93;1.95;;;17.40;94.40;;;;;;5023859;28;20125;-72
2023/04/23 08:25:31;;;;;;;7.85;2.05;;;17.40;94.30;;;;;;5002928;28;20110;-69
2023/04/23 08:27:57;;;;;;;5.00;1.48;;;17.50;94.60;;;;;;5009406;28;20018;-71
2023/04/23 08:30:23;;;;;;;5.05;1.65;;;17.50;94.50;;;;;;5007460;28;20087;-71
2023/04/23 08:32:52;;;;;;;8.90;2.00;;;17.50;94.20;;;;;;5009713;28;20097;-70
2023/04/23 08:35:18;;;;;;;9.38;2.38;;;17.60;94.10;;;;;;5013464;28;20068;-75
2023/04/23 08:37:45;;;;;;;9.82;2.03;;;17.60;94.00;;;;;;5009345;28;20033;-68
2023/04/23 08:40:11;;;;;;;8.35;2.05;;;17.60;93.90;;;;;;5000654;28;20475;-73
2023/04/23 08:42:44;;;;;;;10.77;2.15;;;17.70;93.90;;;;;;5004162;28;20146;-70
2023/04/23 08:45:11;;;;;;;6.68;2.22;;;17.80;93.90;;;;;;5002216;28;20120;-70
2023/04/23 08:47:41;;;;;;;4.63;1.90;;;17.80;93.60;;;;;;5003764;28;20033;-68
2023/04/23 08:50:12;;;;;;;6.32;1.95;;;17.80;93.80;;;;;;4999299;28;20067;-71
2023/04/23 08:52:43;;;;;;;8.40;1.88;;;17.80;93.80;;;;;;5008339;28;20530;-69
2023/04/23 08:55:13;;;;;;;6.10;2.03;;;17.90;93.90;;;;;;5011026;28;20030;-75
2023/04/23 08:57:40;;;;;;;6.90;1.92;;;17.90;94.10;;;;;;5009377;28;20083;-68
2023/04/23 09:00:09;;;;;;;7.50;1.77;;;18.00;94.30;;;;;;4997172;28;20081;-67
2023/04/23 09:02:36;;;;;;;9.35;1.75;;;18.10;94.30;;;;;;4997818;28;20463;-72
2023/04/23 09:05:03;;;;;;;10.95;2.70;;;18.10;94.40;;;;;;5004526;28;20034;-72
2023/04/23 09:07:29;;;;;;;11.48;2.53;;;18.20;94.50;;;;;;5009747;28;20121;-73
2023/04/23 09:09:55;;;;;;;11.43;2.40;;;18.30;94.50;;;;;;5008533;28;20113;-71
2023/04/23 09:12:21;;;;;;;8.02;2.45;;;18.30;94.50;;;;;;5010619;28;20117;-73
2023/04/23 09:14:48;;;;;;;7.70;2.20;;;18.40;94.40;;;;;;5009799;28;20116;-74
2023/04/23 09:17:14;;;;;;;6.90;2.00;;;18.40;94.40;;;;;;5010906;28;20467;-71
2023/04/23 09:19:41;;;;;;;12.48;2.60;;;18.40;94.40;;;;;;5009406;28;20026;-71
2023/04/23 09:22:08;;;;;;;6.90;2.45;;;18.40;94.40;;;;;;5008324;28;20471;-75
2023/04/23 09:24:33;;;;;;;10.93;2.38;;;18.40;94.20;;;;;;5012634;28;20173;-73
2023/04/23 09:26:59;;;;;;;9.25;2.30;;;18.40;94.00;;;;;;5009611;28;20508;-74
2023/04/23 09:29:25;;;;;;;8.30;2.25;;;18.50;93.80;;;;;;5008663;28;20042;-72
2023/04/23 09:32:01;;;;;;;5.82;2.10;;;18.50;93.60;;;;;;5011827;28;20018;-73
2023/04/23 09:34:27;;;;;;;7.40;2.25;;;18.50;93.50;;;;;;5011193;28;20084;-73
2023/04/23 09:36:53;;;;;;;8.82;2.10;;;18.50;93.30;;;;;;5008454;28;20025;-71
2023/04/23 09:39:21;;;;;;;7.70;1.70;;;18.40;93.10;;;;;;5008891;28;20029;-71
2023/04/23 09:41:47;;;;;;;5.32;1.50;;;18.50;92.90;;;;;;5006802;28;20150;-73
2023/04/23 09:44:25;;;;;;;9.02;1.83;;;18.60;93.00;;;;;;5009143;28;20141;-72
2023/04/23 09:46:50;;;;;;;5.72;1.75;;;18.60;92.80;;;;;;5007393;28;20018;-72
2023/04/23 09:49:16;;;;;;;11.73;1.85;;;18.70;92.90;;;;;;5002458;28;20091;-74
2023/04/23 09:51:46;;;;;;;7.25;1.65;;;18.60;92.80;;;;;;5005641;28;20105;-69
2023/04/23 09:54:13;;;;;;;8.52;1.88;;;18.70;92.90;;;;;;5005580;28;20044;-74
2023/04/23 09:56:43;;;;;;;7.65;1.67;;;18.70;92.80;;;;;;5006276;28;20451;-72
2023/04/23 09:59:26;;;;;;;10.65;2.10;;;18.80;92.90;;;;;;5010228;28;20113;-73
2023/04/23 10:01:53;;;;;;;7.38;2.10;;;18.90;92.80;;;;;;5005063;28;20025;-70
2023/04/23 10:04:21;;;;;;;9.20;1.95;;;18.90;93.00;;;;;;5008559;28;20072;-75
2023/04/23 10:07:13;;;;;;;9.95;1.80;;;18.90;93.00;;;;;;5001397;28;20030;-69
2023/04/23 10:09:40;;;;;;;9.18;1.77;;;18.90;92.80;;;;;;5007786;28;20042;-71
2023/04/23 10:12:07;;;;;;;7.15;1.52;;;18.90;92.70;;;;;;4997076;28;20031;-70
2023/04/23 10:14:33;;;;;;;5.47;1.63;;;18.90;92.90;;;;;;5007645;28;20165;-71
2023/04/23 10:17:03;;;;;;;7.40;2.00;;;18.90;92.50;;;;;;5013024;28;20048;-77
2023/04/23 10:19:30;;;;;;;6.45;1.52;;;19.00;92.60;;;;;;5010925;28;20125;-71
2023/04/23 10:22:07;;;;;;;7.07;1.40;;;19.00;92.50;;;;;;5009802;28;20048;-71
2023/04/23 10:24:39;;;;;;;9.00;1.45;;;19.00;92.80;;;;;;5011945;28;20092;-71
2023/04/23 10:27:10;;;;;;;7.50;1.80;;;19.00;92.40;;;;;;5013788;28;20438;-76
2023/04/23 10:29:35;;;;;;;5.70;1.30;;;19.00;92.40;;;;;;5013892;28;20036;-74
2023/04/23 10:32:05;;;;;;;6.00;1.10;;;19.10;92.40;;;;;;5013198;28;20026;-71
2023/04/23 10:34:32;;;;;;;8.90;1.65;;;19.10;92.30;;;;;;5014308;28;20479;-72
2023/04/23 10:36:59;;;;;;;5.07;1.40;;;19.10;92.20;;;;;;5013534;28;20038;-70
2023/04/23 10:39:30;;;;;;;5.50;1.38;;;19.10;92.20;;;;;;5013686;28;20037;-71
2023/04/23 10:41:57;;;;;;;6.15;1.55;;;19.10;92.10;;;;;;5013328;28;20715;-70
2023/04/23 10:44:35;;;;;;;5.72;1.30;;;19.20;92.10;;;;;;5009905;28;20030;-69
2023/04/23 10:47:02;;;;;;;7.72;1.48;;;19.10;91.90;;;;;;5000211;28;20025;-69
2023/04/23 10:49:32;;;;;;;5.32;1.40;;;19.20;91.70;;;;;;5003707;28;20029;-70
2023/04/23 10:52:00;;;;;;;4.75;1.42;;;19.20;91.70;;;;;;5008334;28;20058;-73
2023/04/23 10:54:30;;;;;;;6.35;1.83;;;19.20;91.60;;;;;;5011280;28;20501;-73
2023/04/23 10:57:02;;;;;;;7.35;1.40;;;19.30;91.60;;;;;;5009604;28;20674;-70
2023/04/23 10:59:29;;;;;;;5.57;1.17;;;19.30;91.70;;;;;;5012027;28;20486;-69
2023/04/23 11:02:08;;;;;;;8.07;1.73;;;19.30;91.70;;;;;;5012975;28;20380;-68
2023/04/23 11:04:40;;;;;;;9.57;1.60;;;19.30;91.70;;;;;;5011127;28;20446;-68
2023/04/23 11:07:07;;;;;;;6.45;1.55;;;19.30;91.70;;;;;;5011050;28;20137;-68
2023/04/23 11:09:48;;;;;;;7.25;1.38;;;19.30;91.70;;;;;;5008159;28;20120;-69
2023/04/23 11:12:23;;;;;;;5.50;1.10;;;19.30;91.70;;;;;;5006830;28;20093;-73
2023/04/23 11:14:50;;;;;;;6.03;1.77;;;19.30;91.70;;;;;;5006988;28;20030;-70
2023/04/23 11:17:22;;;;;;;7.30;1.45;;;19.30;91.70;;;;;;5002679;28;20057;-68
2023/04/23 11:20:15;;;;;;;9.55;1.60;;;19.30;91.70;;;;;;5006529;28;20025;-74
2023/04/23 11:22:48;;;;;;;6.03;1.58;;;19.30;91.60;;;;;;4997376;28;20046;-74
2023/04/23 11:25:25;;;;;;;5.22;1.23;;;19.30;91.60;;;;;;5006664;28;20033;-74
2023/04/23 11:27:53;;;;;;;5.35;1.67;;;19.40;91.60;;;;;;5013382;28;20418;-69
2023/04/23 11:30:22;;;;;;;5.93;1.45;;;19.40;91.60;;;;;;5009396;28;20490;-70
2023/04/23 11:32:51;;;;;;;8.13;1.60;;;19.40;91.60;;;;;;5011733;28;20037;-71
2023/04/23 11:35:22;;;;;;;6.43;1.33;;;19.40;91.50;;;;;;5003361;28;20026;-72
2023/04/23 11:37:48;;;;;;;5.32;1.50;;;19.40;91.30;;;;;;5002853;28;20030;-69
2023/04/23 11:40:18;;;;;;;5.18;1.17;;;19.40;91.30;;;;;;5015595;28;20029;-72
2023/04/23 11:42:48;;;;;;;10.02;1.48;;;19.50;91.30;;;;;;5007607;28;20026;-76
2023/04/23 11:45:25;;;;;;;4.70;0.95;;;19.50;91.10;;;;;;5008369;28;20022;-72
2023/04/23 11:47:55;;;;;;;4.95;0.90;;;19.50;91.00;;;;;;5024047;28;20663;-77
2023/04/23 11:50:28;;;;;;;7.53;1.27;;;19.50;90.90;;;;;;5009832;28;20058;-74
2023/04/23 11:52:54;;;;;;;6.80;1.10;;;19.60;90.60;;;;;;5013313;28;20057;-73
2023/04/23 11:55:22;;;;;;;6.03;1.20;;;19.60;90.60;;;;;;5016201;28;20026;-70
2023/04/23 11:57:50;;;;;;;6.13;1.30;;;19.60;90.60;;;;;;5007636;28;20046;-70
2023/04/23 12:00:22;;;;;;;4.05;1.33;;;19.60;90.60;;;;;;5007185;28;20471;-71
2023/04/23 12:02:55;;;;;;;5.88;0.93;;;19.70;90.70;;;;;;5006448;28;20482;-71
2023/04/23 12:05:37;;;;;;;4.03;1.17;;;19.70;90.70;;;;;;5011742;28;20038;-72
2023/04/23 12:08:21;;;;;;;3.53;1.05;;;19.70;90.80;;;;;;5007559;28;20053;-70
2023/04/23 12:10:49;;;;;;;4.72;1.25;;;19.70;90.80;;;;;;5007712;28;20054;-71
2023/04/23 12:13:19;;;;;;;6.03;1.33;;;19.70;90.80;;;;;;5008236;28;20060;-68
2023/04/23 12:15:46;;;;;;;10.90;1.35;;;19.70;90.80;;;;;;5006940;28;20022;-68
2023/04/23 12:18:11;;;;;;;6.78;1.60;;;19.70;90.90;;;;;;5001720;28;20069;-71
2023/04/23 12:20:39;;;;;;;13.15;1.95;;;19.80;90.90;;;;;;5010619;28;20022;-72
2023/04/23 12:23:05;;;;;;;7.95;1.52;;;19.80;90.80;;;;;;4997552;28;20134;-73
2023/04/23 12:25:32;;;;;;;5.05;1.17;;;19.80;90.80;;;;;;5002511;28;20092;-72
2023/04/23 12:27:59;;;;;;;6.75;1.42;;;19.90;90.70;;;;;;5008355;28;20072;-75
2023/04/23 12:30:28;;;;;;;6.28;1.23;;;19.90;90.80;;;;;;5008232;28;20029;-69
2023/04/23 12:33:05;;;;;;;7.65;1.00;;;19.90;90.70;;;;;;5003640;28;20084;-72
2023/04/23 12:35:41;;;;;;;6.03;1.52;;;19.90;90.70;;;;;;5000620;28;20108;-68
2023/04/23 12:38:24;;;;;;;5.82;1.10;;;20.00;90.70;;;;;;4987679;28;20034;-66